Time;durP1;ratioP1;P1;durP2;ratioP2;P2;SDS_P1;SDS_P2;PMS_P1;PMS_P2;Temp;Humidity;BMP_temperature;BMP_pressure;BME280_temperature;BME280_humidity;BME280_pressure;Samples;Min_cycle;Max_cycle;Signal;HPM_P1;HPM_P2
2022/08/12 00:49:24;;;;;;;3.17;1.80;;;21.00;77.40;;;;;;5012730;28;20044;-68
2022/08/12 00:52:28;;;;;;;4.78;1.42;;;21.10;77.10;;;;;;5011320;28;20030;-67
2022/08/12 00:55:32;;;;;;;2.95;1.90;;;21.20;76.90;;;;;;5011417;28;20053;-67
2022/08/12 00:58:45;;;;;;;8.98;1.92;;;21.30;77.20;;;;;;5011574;28;20048;-68
2022/08/12 01:02:09;;;;;;;3.20;2.20;;;21.30;77.20;;;;;;5011996;28;20397;-68
2022/08/12 01:12:24;;;;;;;4.25;1.70;;;21.40;77.60;;;;;;5011429;28;20037;-68
2022/08/12 01:15:29;;;;;;;2.42;1.60;;;21.40;78.00;;;;;;5011074;28;20045;-68
2022/08/12 01:18:38;;;;;;;5.15;1.98;;;21.40;78.60;;;;;;5011473;28;20049;-69
2022/08/12 01:22:17;;;;;;;2.13;1.58;;;21.50;78.70;;;;;;4999427;28;20408;-68
2022/08/12 01:25:23;;;;;;;3.45;2.00;;;21.50;78.70;;;;;;5011857;28;20045;-69
2022/08/12 01:28:30;;;;;;;4.18;1.70;;;21.60;78.80;;;;;;5011511;28;20060;-68
2022/08/12 01:31:54;;;;;;;2.50;1.70;;;21.70;78.70;;;;;;5011367;28;20045;-69
2022/08/12 01:35:10;;;;;;;3.63;1.77;;;21.80;78.60;;;;;;5010531;28;20056;-68
2022/08/12 01:38:37;;;;;;;2.22;1.60;;;22.00;78.40;;;;;;5010844;28;20041;-68
2022/08/12 01:41:51;;;;;;;4.10;1.60;;;22.10;78.20;;;;;;5011145;28;20258;-68
2022/08/12 01:44:57;;;;;;;4.22;1.70;;;22.20;78.30;;;;;;5010805;28;20057;-67
2022/08/12 01:48:23;;;;;;;3.42;2.08;;;22.30;78.00;;;;;;5010637;28;20393;-67
2022/08/12 01:51:48;;;;;;;4.95;1.95;;;22.40;78.00;;;;;;5010619;28;20049;-67
2022/08/12 01:55:12;;;;;;;16.50;2.88;;;22.40;78.00;;;;;;5010422;28;20049;-67
2022/08/12 02:02:08;;;;;;;5.18;1.73;;;22.20;78.50;;;;;;5010625;28;20531;-67
2022/08/12 02:13:20;;;;;;;4.07;1.80;;;21.80;78.50;;;;;;5011123;28;20053;-66
2022/08/12 02:16:56;;;;;;;2.95;1.60;;;21.70;78.70;;;;;;5011028;28;20312;-67
2022/08/12 02:20:51;;;;;;;2.40;1.70;;;21.60;79.20;;;;;;5010449;28;20061;-69
2022/08/12 02:23:56;;;;;;;3.85;1.90;;;21.60;79.30;;;;;;4997718;28;20221;-68
2022/08/12 02:27:03;;;;;;;3.05;1.65;;;21.70;79.90;;;;;;4998279;28;20045;-68
2022/08/12 02:30:10;;;;;;;4.95;1.65;;;21.80;80.00;;;;;;4998331;28;20049;-67
2022/08/12 02:33:16;;;;;;;1.98;1.55;;;21.90;79.80;;;;;;5010267;28;20037;-67
2022/08/12 02:36:21;;;;;;;2.75;1.73;;;21.90;80.00;;;;;;5010634;28;20057;-67
2022/08/12 02:39:28;;;;;;;5.22;1.50;;;22.00;80.30;;;;;;5009740;28;20061;-67
2022/08/12 02:42:33;;;;;;;3.42;1.60;;;22.00;79.60;;;;;;4999331;28;20464;-68
2022/08/12 02:45:52;;;;;;;2.50;1.52;;;22.10;79.40;;;;;;5010635;28;20057;-68
2022/08/12 02:49:13;;;;;;;1.70;1.48;;;22.10;79.80;;;;;;4986987;28;20051;-68
2022/08/12 02:52:18;;;;;;;3.45;1.70;;;22.10;79.60;;;;;;4998431;28;20052;-67
2022/08/12 02:55:26;;;;;;;4.05;1.85;;;22.00;79.50;;;;;;5009586;28;20045;-67
2022/08/12 02:58:49;;;;;;;2.30;1.58;;;22.00;79.60;;;;;;5010231;28;20049;-68
2022/08/12 03:01:55;;;;;;;2.95;1.50;;;22.00;79.40;;;;;;5010602;28;20048;-68
2022/08/12 03:05:22;;;;;;;15.25;2.25;;;22.00;79.70;;;;;;5009714;28;20539;-67
2022/08/12 03:08:30;;;;;;;3.38;1.63;;;22.10;79.80;;;;;;5010463;28;20054;-67
2022/08/12 03:11:39;;;;;;;4.63;1.63;;;22.50;78.30;;;;;;5010771;28;20393;-68
2022/08/12 03:14:43;;;;;;;2.90;1.60;;;22.90;77.30;;;;;;5011509;28;20045;-69
2022/08/12 03:17:55;;;;;;;6.20;1.98;;;23.10;76.70;;;;;;5014079;28;20045;-68
2022/08/12 03:21:00;;;;;;;5.40;1.45;;;23.30;76.00;;;;;;5013824;28;20060;-69
2022/08/12 03:24:07;;;;;;;2.33;1.77;;;23.40;75.60;;;;;;5013252;28;20048;-69
2022/08/12 03:27:50;;;;;;;5.25;1.45;;;23.50;75.40;;;;;;5004163;28;20069;-68
2022/08/12 03:31:13;;;;;;;4.10;1.17;;;23.60;74.90;;;;;;5001261;28;20048;-70
2022/08/12 03:34:22;;;;;;;4.85;1.98;;;23.60;74.90;;;;;;5013122;28;20041;-68
2022/08/12 03:37:29;;;;;;;4.50;1.83;;;23.60;74.70;;;;;;5014143;28;20061;-69
2022/08/12 04:01:57;;;;;;;3.10;1.60;;;23.90;73.00;;;;;;5012810;28;20041;-68
2022/08/12 04:05:02;;;;;;;4.28;1.90;;;23.60;75.50;;;;;;5012633;28;20053;-68
2022/08/12 04:08:07;;;;;;;3.15;1.48;;;23.10;74.90;;;;;;5000309;28;20408;-68
2022/08/12 04:17:59;;;;;;;3.35;1.70;;;23.50;73.30;;;;;;5012114;28;20040;-67
2022/08/12 04:21:09;;;;;;;3.83;1.45;;;23.50;72.00;;;;;;5012396;28;20404;-68
2022/08/12 04:24:13;;;;;;;2.63;2.05;;;22.60;77.30;;;;;;5012111;28;20056;-67
2022/08/12 04:27:17;;;;;;;2.63;1.60;;;21.30;81.70;;;;;;5011075;28;20060;-67
2022/08/12 04:30:22;;;;;;;2.55;1.60;;;21.20;82.50;;;;;;5011655;28;20053;-67
2022/08/12 04:33:27;;;;;;;7.82;2.17;;;21.10;83.30;;;;;;5011768;28;20041;-68
2022/08/12 04:36:33;;;;;;;3.33;1.67;;;21.00;83.70;;;;;;5012056;28;20377;-68
2022/08/12 04:39:39;;;;;;;2.45;1.52;;;20.90;83.70;;;;;;5011270;28;20523;-68
2022/08/12 04:42:44;;;;;;;6.07;2.00;;;20.90;84.60;;;;;;5012006;28;20052;-68
2022/08/12 04:45:48;;;;;;;2.25;1.50;;;20.80;85.60;;;;;;5011752;28;20053;-68
2022/08/12 04:48:53;;;;;;;6.97;2.50;;;20.70;85.90;;;;;;5012116;28;20053;-69
2022/08/12 04:51:58;;;;;;;4.05;1.80;;;20.20;88.40;;;;;;5011558;28;20388;-67
2022/08/12 04:55:03;;;;;;;2.47;1.73;;;20.20;87.60;;;;;;5011338;28;20048;-68
2022/08/12 04:58:08;;;;;;;4.05;1.80;;;20.40;86.40;;;;;;5011535;28;20053;-68
2022/08/12 05:01:12;;;;;;;2.50;1.58;;;20.50;86.40;;;;;;5011201;28;20408;-69
2022/08/12 05:04:21;;;;;;;4.93;1.70;;;20.60;86.40;;;;;;5011324;28;20400;-68
2022/08/12 05:07:26;;;;;;;6.57;1.98;;;20.60;86.20;;;;;;5011967;28;20041;-68
2022/08/12 05:10:30;;;;;;;4.22;1.88;;;20.70;86.40;;;;;;5012084;28;20052;-68
2022/08/12 05:13:37;;;;;;;5.68;1.90;;;20.80;85.40;;;;;;5011485;28;20041;-68
2022/08/12 05:16:42;;;;;;;6.68;1.80;;;20.80;86.00;;;;;;5011314;28;20396;-68
2022/08/12 05:20:05;;;;;;;5.40;1.90;;;20.70;86.70;;;;;;5011159;28;20052;-68
2022/08/12 05:23:30;;;;;;;6.88;2.20;;;20.80;86.50;;;;;;4999058;28;20117;-68
2022/08/12 05:29:56;;;;;;;3.15;1.30;;;21.30;85.00;;;;;;5011150;28;20049;-68
2022/08/12 05:33:04;;;;;;;4.32;1.50;;;23.30;80.80;;;;;;5012868;28;20041;-67
2022/08/12 05:36:12;;;;;;;3.35;1.70;;;24.50;79.30;;;;;;5012233;28;20053;-67
2022/08/12 05:43:16;;;;;;;4.25;1.60;;;28.40;73.30;;;;;;5010786;28;20045;-68
2022/08/12 05:46:40;;;;;;;10.27;1.50;;;29.90;71.30;;;;;;5011074;28;20512;-68
2022/08/12 05:49:45;;;;;;;4.15;1.40;;;30.60;70.30;;;;;;5011114;28;20044;-68
2022/08/12 05:53:08;;;;;;;3.20;1.58;;;31.60;68.80;;;;;;5010647;28;20041;-68
2022/08/12 05:56:33;;;;;;;5.90;1.50;;;32.10;68.00;;;;;;5011146;28;20037;-68
2022/08/12 05:59:38;;;;;;;6.38;1.80;;;30.60;67.80;;;;;;5010317;28;20045;-69
2022/08/12 06:03:02;;;;;;;3.90;1.70;;;28.20;71.00;;;;;;4998482;28;20503;-68
2022/08/12 06:06:06;;;;;;;7.00;1.73;;;26.60;73.90;;;;;;5011049;28;20049;-68
2022/08/12 06:09:10;;;;;;;4.88;1.80;;;25.10;75.30;;;;;;5010462;28;20057;-68
2022/08/12 06:12:16;;;;;;;3.75;1.90;;;23.30;81.10;;;;;;4997867;28;20037;-68
2022/08/12 06:15:21;;;;;;;3.10;1.80;;;22.60;84.00;;;;;;5010088;28;20049;-68
2022/08/12 06:18:25;;;;;;;2.90;1.80;;;22.80;84.00;;;;;;5010524;28;20400;-68
2022/08/12 06:21:29;;;;;;;5.38;2.00;;;23.10;82.70;;;;;;5009765;28;20061;-68
2022/08/12 06:24:34;;;;;;;3.70;1.48;;;24.50;81.10;;;;;;5009804;28;20384;-68
2022/08/12 06:27:47;;;;;;;2.30;1.40;;;26.80;77.40;;;;;;5006185;28;20487;-69
2022/08/12 06:30:52;;;;;;;2.45;1.40;;;28.00;73.00;;;;;;5009916;28;20113;-68
2022/08/12 06:33:56;;;;;;;2.22;1.15;;;29.50;70.60;;;;;;5009415;28;20395;-69
2022/08/12 06:36:59;;;;;;;3.63;1.55;;;31.50;68.60;;;;;;5009846;28;20057;-68
2022/08/12 06:40:04;;;;;;;5.93;1.40;;;33.10;65.30;;;;;;4990409;28;20169;-66
2022/08/12 06:43:08;;;;;;;2.00;0.93;;;33.10;64.00;;;;;;5009503;28;20069;-68
2022/08/12 06:46:12;;;;;;;3.22;1.45;;;34.20;63.50;;;;;;5009685;28;20044;-69
2022/08/12 06:49:35;;;;;;;8.32;1.67;;;34.70;62.90;;;;;;5011824;28;20072;-68
2022/08/12 06:52:59;;;;;;;4.63;1.40;;;34.80;61.50;;;;;;5013691;28;20510;-69
2022/08/12 06:56:22;;;;;;;2.53;1.20;;;34.70;61.90;;;;;;5013021;28;20060;-68
2022/08/12 06:59:25;;;;;;;3.70;1.20;;;33.50;62.20;;;;;;5011938;28;20045;-68
2022/08/12 07:02:29;;;;;;;5.53;1.15;;;34.80;61.10;;;;;;5003585;28;20121;-69
2022/08/12 07:05:33;;;;;;;1.25;0.95;;;35.30;59.60;;;;;;5012568;28;20049;-69
2022/08/12 07:08:41;;;;;;;4.45;1.23;;;35.80;61.10;;;;;;5000539;28;20117;-68
2022/08/12 07:11:45;;;;;;;2.88;1.25;;;36.20;59.80;;;;;;5011652;28;20049;-69
2022/08/12 07:14:50;;;;;;;3.30;1.20;;;36.40;59.20;;;;;;5009113;28;20048;-69
2022/08/12 07:18:19;;;;;;;3.45;1.00;;;35.80;59.50;;;;;;5007907;28;20519;-69
2022/08/12 07:21:42;;;;;;;4.07;0.93;;;36.20;59.20;;;;;;5007950;28;20041;-68
2022/08/12 07:25:29;;;;;;;9.20;1.58;;;36.90;58.30;;;;;;4997807;28;20044;-67
2022/08/12 07:28:17;;;;;;;2.58;1.10;;;37.60;58.50;;;;;;5012170;28;20057;-67
2022/08/12 07:31:21;;;;;;;2.78;1.13;;;38.30;57.80;;;;;;5011746;28;20056;-67
2022/08/12 07:34:25;;;;;;;5.07;1.10;;;38.40;57.40;;;;;;5012299;28;20041;-68
2022/08/12 07:37:30;;;;;;;2.97;1.20;;;38.90;56.90;;;;;;5011633;28;20045;-67
2022/08/12 07:40:34;;;;;;;3.22;1.08;;;39.70;56.80;;;;;;5004117;28;20401;-68
2022/08/12 07:43:45;;;;;;;3.15;0.77;;;40.90;55.40;;;;;;4988000;28;20037;-68
2022/08/12 07:46:51;;;;;;;6.28;1.40;;;41.50;54.10;;;;;;5012065;28;20045;-69
2022/08/12 07:49:57;;;;;;;2.45;1.02;;;41.70;53.50;;;;;;5010131;28;20064;-68
2022/08/12 07:53:01;;;;;;;2.95;1.05;;;41.80;53.50;;;;;;5012174;28;20045;-69
2022/08/12 07:56:10;;;;;;;4.30;1.00;;;42.10;53.20;;;;;;5000223;28;20045;-71
2022/08/12 07:59:14;;;;;;;5.40;1.10;;;42.00;52.30;;;;;;5011806;28;20412;-71
2022/08/12 08:02:37;;;;;;;4.25;1.17;;;41.20;53.30;;;;;;5010221;28;20048;-70
2022/08/12 08:05:48;;;;;;;4.65;1.10;;;41.40;53.00;;;;;;5011252;28;20049;-70
2022/08/12 08:08:55;;;;;;;4.05;0.90;;;41.20;53.60;;;;;;5012018;28;20065;-70
2022/08/12 08:15:46;;;;;;;5.50;1.25;;;39.20;53.80;;;;;;5008658;28;20040;-69
2022/08/12 08:19:14;;;;;;;3.80;1.10;;;37.70;55.10;;;;;;4992766;28;20053;-69
2022/08/12 08:22:37;;;;;;;2.10;1.23;;;36.40;56.10;;;;;;5010624;28;20044;-69
2022/08/12 08:25:43;;;;;;;5.28;1.58;;;36.00;56.90;;;;;;5007009;28;20049;-69
2022/08/12 08:28:49;;;;;;;7.28;1.40;;;36.10;57.00;;;;;;5008156;28;20041;-69
2022/08/12 08:32:12;;;;;;;2.90;1.00;;;35.80;56.80;;;;;;5003302;28;20053;-69
2022/08/12 08:35:16;;;;;;;4.78;1.10;;;36.50;56.90;;;;;;4991209;28;20042;-70
2022/08/12 08:38:20;;;;;;;7.68;1.27;;;38.10;55.80;;;;;;4994087;28;20045;-70
2022/08/12 08:48:32;;;;;;;1.65;1.20;;;37.80;54.60;;;;;;5012296;28;20053;-70
2022/08/12 08:51:37;;;;;;;2.55;1.17;;;38.70;54.30;;;;;;5012432;28;20507;-69
2022/08/12 08:54:41;;;;;;;3.53;1.08;;;40.10;53.50;;;;;;5010956;28;20045;-69
2022/08/12 08:58:05;;;;;;;4.50;1.00;;;41.10;52.70;;;;;;5011670;28;20400;-69
2022/08/12 09:01:09;;;;;;;5.28;1.35;;;41.70;51.80;;;;;;5007266;28;20044;-68
2022/08/12 09:04:32;;;;;;;3.45;1.10;;;40.80;51.60;;;;;;5010188;28;20045;-67
2022/08/12 09:07:44;;;;;;;2.35;1.10;;;39.40;53.10;;;;;;5007489;28;20049;-66
2022/08/12 09:10:48;;;;;;;10.23;1.38;;;37.90;54.10;;;;;;4999407;28;20041;-67
2022/08/12 09:13:52;;;;;;;4.30;1.20;;;36.80;54.90;;;;;;4992870;28;20049;-67
2022/08/12 09:16:57;;;;;;;3.40;1.20;;;36.50;55.50;;;;;;5005434;28;20041;-67
2022/08/12 09:20:01;;;;;;;5.97;1.30;;;36.40;55.30;;;;;;4994792;28;20063;-67
2022/08/12 09:26:50;;;;;;;4.05;1.17;;;35.20;55.20;;;;;;4998501;28;20045;-66
2022/08/12 09:29:54;;;;;;;2.25;1.30;;;35.00;55.50;;;;;;5011171;28;20049;-67
2022/08/12 09:32:58;;;;;;;4.82;1.17;;;34.60;56.30;;;;;;5009995;28;20296;-67
2022/08/12 09:36:03;;;;;;;2.55;1.20;;;34.80;55.90;;;;;;5010648;28;20144;-67
2022/08/12 09:39:12;;;;;;;2.45;1.10;;;35.90;55.40;;;;;;4992872;28;20053;-66
2022/08/12 09:46:33;;;;;;;2.05;1.10;;;38.00;53.40;;;;;;4933669;28;20049;-66
2022/08/12 09:49:37;;;;;;;3.85;1.20;;;37.40;54.90;;;;;;4990905;28;20388;-69
2022/08/12 09:52:41;;;;;;;6.90;1.33;;;37.30;55.70;;;;;;5000168;28;20041;-68
2022/08/12 09:55:51;;;;;;;2.70;1.00;;;40.60;54.00;;;;;;4994627;28;20499;-68
2022/08/12 09:58:55;;;;;;;3.33;1.10;;;43.90;52.10;;;;;;5009577;28;20049;-68
2022/08/12 10:02:18;;;;;;;2.55;1.00;;;46.10;50.80;;;;;;5004888;28;20044;-68
2022/08/12 10:05:22;;;;;;;1.95;0.90;;;47.60;49.70;;;;;;5009298;28;20041;-68
2022/08/12 10:08:31;;;;;;;2.38;0.90;;;48.60;49.00;;;;;;5006164;28;20048;-68
2022/08/12 10:15:00;;;;;;;3.45;1.00;;;49.60;46.90;;;;;;5007588;28;20041;-69
2022/08/12 10:18:04;;;;;;;5.47;1.00;;;50.20;47.00;;;;;;5010067;28;20045;-68
2022/08/12 10:21:16;;;;;;;3.78;1.85;;;50.40;47.00;;;;;;5009922;28;20511;-69
2022/08/12 10:24:22;;;;;;;1.58;0.90;;;50.70;47.20;;;;;;5006852;28;20041;-69
2022/08/12 10:30:49;;;;;;;2.33;1.00;;;51.50;45.90;;;;;;5013868;28;20061;-68
2022/08/12 10:33:53;;;;;;;1.88;1.00;;;50.80;44.80;;;;;;5013477;28;20117;-68
2022/08/12 10:36:59;;;;;;;3.03;1.00;;;49.10;45.70;;;;;;5007736;28;20057;-68
2022/08/12 10:40:03;;;;;;;3.03;1.08;;;46.40;47.00;;;;;;5014140;28;20424;-67
2022/08/12 10:46:32;;;;;;;5.18;1.05;;;44.90;47.50;;;;;;4990758;28;20049;-68
2022/08/12 10:49:36;;;;;;;2.10;1.10;;;43.80;48.40;;;;;;5000606;28;20408;-69
2022/08/12 10:52:59;;;;;;;2.90;1.30;;;45.30;47.70;;;;;;5014014;28;20065;-68
2022/08/12 10:56:22;;;;;;;1.50;0.80;;;45.90;47.70;;;;;;4999945;28;20049;-69
2022/08/12 10:59:45;;;;;;;2.70;0.90;;;48.20;46.90;;;;;;4998360;28;20040;-69
2022/08/12 11:02:53;;;;;;;2.38;1.08;;;48.10;46.40;;;;;;5012299;28;20495;-69
2022/08/12 11:05:57;;;;;;;2.55;1.10;;;46.90;46.20;;;;;;5000280;28;20153;-67
2022/08/12 11:09:01;;;;;;;2.90;0.95;;;45.00;46.90;;;;;;5012279;28;20053;-68
2022/08/12 11:12:06;;;;;;;2.75;1.20;;;43.10;47.90;;;;;;5000068;28;20408;-67
2022/08/12 11:15:11;;;;;;;2.45;1.20;;;41.20;49.40;;;;;;5005261;28;20049;-67
2022/08/12 11:21:56;;;;;;;2.42;1.42;;;37.10;52.80;;;;;;5008702;28;20507;-70
2022/08/12 11:25:00;;;;;;;3.28;1.10;;;35.70;54.50;;;;;;5012712;28;20484;-69
2022/08/12 11:28:04;;;;;;;4.35;1.60;;;35.60;56.00;;;;;;5012667;28;20056;-70
2022/08/12 11:31:09;;;;;;;5.95;1.55;;;35.10;54.70;;;;;;5014494;28;20041;-69
2022/08/12 11:34:13;;;;;;;4.03;1.30;;;35.20;55.80;;;;;;5011120;28;20045;-67
2022/08/12 11:37:17;;;;;;;2.33;1.33;;;34.80;56.00;;;;;;5001251;28;20034;-67
2022/08/12 11:40:21;;;;;;;1.83;1.10;;;35.10;54.70;;;;;;5002324;28;20041;-66
2022/08/12 11:43:25;;;;;;;2.22;1.48;;;34.70;54.90;;;;;;5012134;28;20053;-68
2022/08/12 11:46:48;;;;;;;1.55;1.20;;;34.60;55.70;;;;;;5012612;28;20045;-67
2022/08/12 11:49:52;;;;;;;3.92;1.27;;;34.70;56.10;;;;;;5017154;28;20049;-67
2022/08/12 11:52:56;;;;;;;2.72;1.58;;;34.30;56.00;;;;;;5010151;28;20052;-67
2022/08/12 11:56:01;;;;;;;2.97;1.25;;;34.10;57.20;;;;;;5013486;28;20045;-67
2022/08/12 11:59:05;;;;;;;1.80;1.50;;;35.20;56.40;;;;;;5012342;28;20524;-70
2022/08/12 12:02:10;;;;;;;6.78;1.70;;;35.90;55.60;;;;;;4988857;28;20052;-67
2022/08/12 12:05:33;;;;;;;3.25;1.30;;;37.40;54.80;;;;;;5011257;28;20053;-67
2022/08/12 12:08:56;;;;;;;1.63;1.33;;;39.60;52.60;;;;;;5012041;28;20400;-67
2022/08/12 12:12:03;;;;;;;2.33;1.30;;;39.80;51.90;;;;;;5004702;28;20507;-68
2022/08/12 12:15:25;;;;;;;1.90;1.23;;;37.90;52.10;;;;;;4996124;28;20057;-67
2022/08/12 12:18:32;;;;;;;4.03;1.48;;;34.40;56.40;;;;;;5007590;28;20400;-69
2022/08/12 12:21:37;;;;;;;4.55;1.70;;;34.20;56.00;;;;;;5012811;28;20041;-69
2022/08/12 12:24:45;;;;;;;2.40;1.30;;;33.70;56.80;;;;;;5012606;28;20041;-68
2022/08/12 12:27:53;;;;;;;3.72;1.35;;;33.60;55.90;;;;;;5012428;28;20061;-68
2022/08/12 12:30:57;;;;;;;4.45;1.38;;;33.90;55.90;;;;;;4999576;28;20049;-68
2022/08/12 12:34:01;;;;;;;2.92;1.50;;;34.30;56.20;;;;;;4999266;28;20049;-69
2022/08/12 12:37:24;;;;;;;4.50;1.45;;;34.90;55.30;;;;;;4997150;28;20057;-69
2022/08/12 12:40:30;;;;;;;3.15;1.75;;;33.70;55.80;;;;;;4993053;28;20045;-68
2022/08/12 12:43:53;;;;;;;2.20;1.50;;;32.90;57.30;;;;;;5007452;28;20049;-69
2022/08/12 12:46:56;;;;;;;2.47;1.70;;;32.00;57.50;;;;;;5007324;28;20053;-68
2022/08/12 12:50:00;;;;;;;2.22;1.50;;;31.90;57.00;;;;;;5010391;28;20049;-68
2022/08/12 12:53:05;;;;;;;3.92;1.50;;;31.90;57.70;;;;;;5011401;28;20049;-68
2022/08/12 12:56:19;;;;;;;4.03;1.60;;;32.30;57.50;;;;;;5009224;28;20053;-68
2022/08/12 12:59:27;;;;;;;2.08;1.40;;;32.50;56.60;;;;;;5010366;28;20491;-68
2022/08/12 13:02:39;;;;;;;3.92;1.50;;;33.90;56.10;;;;;;5008571;28;20040;-70
2022/08/12 13:05:44;;;;;;;2.58;1.40;;;36.40;53.70;;;;;;4996161;28;20056;-69
2022/08/12 13:08:48;;;;;;;2.50;1.33;;;35.70;54.40;;;;;;5010567;28;20125;-68
2022/08/12 13:12:13;;;;;;;2.40;1.40;;;36.50;53.60;;;;;;5010972;28;20049;-68
2022/08/12 13:15:19;;;;;;;2.55;1.30;;;37.60;52.80;;;;;;5003626;28;20043;-68
2022/08/12 13:18:24;;;;;;;2.75;1.52;;;38.10;52.00;;;;;;4997063;28;20045;-69
2022/08/12 13:21:29;;;;;;;2.45;1.38;;;38.40;52.90;;;;;;5008432;28;20396;-69
2022/08/12 13:31:47;;;;;;;1.97;1.47;;;34.50;55.90;;;;;;5011039;28;20511;-69
2022/08/12 13:34:52;;;;;;;3.22;1.58;;;34.70;55.50;;;;;;5005998;28;20036;-68
2022/08/12 13:37:58;;;;;;;1.85;1.50;;;33.10;55.30;;;;;;5006753;28;20046;-69
2022/08/12 13:41:03;;;;;;;4.35;1.70;;;33.80;56.20;;;;;;5004022;28;20048;-70
2022/08/12 13:44:08;;;;;;;5.18;1.50;;;33.30;56.50;;;;;;5008167;28;20045;-69
2022/08/12 13:47:12;;;;;;;4.32;1.40;;;32.70;56.50;;;;;;5008101;28;20496;-68
2022/08/12 13:50:42;;;;;;;2.10;1.42;;;32.90;56.10;;;;;;5004556;28;20075;-70
2022/08/12 13:53:51;;;;;;;2.72;1.52;;;33.10;57.70;;;;;;4997898;28;20045;-69
2022/08/12 13:56:55;;;;;;;3.10;1.40;;;32.80;57.40;;;;;;5009956;28;20106;-70
2022/08/12 14:00:02;;;;;;;4.80;1.63;;;32.70;56.70;;;;;;4998152;28;20049;-68
2022/08/12 14:03:36;;;;;;;2.55;1.50;;;32.10;57.70;;;;;;4995407;28;20038;-69
2022/08/12 14:06:40;;;;;;;7.07;1.83;;;31.50;59.20;;;;;;5010260;28;20041;-68
2022/08/12 14:13:26;;;;;;;5.55;1.80;;;31.80;58.10;;;;;;5001529;28;20040;-68
2022/08/12 14:16:30;;;;;;;6.97;1.88;;;32.00;58.50;;;;;;5010409;28;20343;-69
2022/08/12 14:19:36;;;;;;;3.17;1.73;;;31.20;58.90;;;;;;5010353;28;20584;-68
2022/08/12 14:22:40;;;;;;;4.85;1.80;;;30.90;59.40;;;;;;5010561;28;20044;-68
2022/08/12 14:25:45;;;;;;;4.38;1.80;;;31.20;60.00;;;;;;5005461;28;20480;-69
2022/08/12 14:28:49;;;;;;;3.63;1.77;;;31.40;59.90;;;;;;5003978;28;20384;-68
2022/08/12 14:31:54;;;;;;;3.42;1.80;;;31.40;60.40;;;;;;5007867;28;20049;-70
2022/08/12 14:34:58;;;;;;;3.20;1.63;;;31.50;59.70;;;;;;5009891;28;20388;-68
2022/08/12 14:38:20;;;;;;;4.63;2.00;;;31.50;59.70;;;;;;5010243;28;20041;-69
2022/08/12 14:41:25;;;;;;;4.68;1.40;;;31.40;59.90;;;;;;5011069;28;20041;-69
2022/08/12 14:44:29;;;;;;;2.53;1.50;;;31.30;60.70;;;;;;5008519;28;20049;-70
2022/08/12 14:50:57;;;;;;;4.22;1.50;;;31.20;60.70;;;;;;5011447;28;20045;-70
2022/08/12 14:54:09;;;;;;;5.72;1.70;;;31.40;60.60;;;;;;5009660;28;20045;-70
2022/08/12 14:57:13;;;;;;;4.80;1.70;;;30.80;59.50;;;;;;5010197;28;20256;-70
2022/08/12 15:03:40;;;;;;;4.50;1.75;;;30.40;60.40;;;;;;5009683;28;20049;-71
2022/08/12 15:06:45;;;;;;;3.03;1.40;;;30.50;60.10;;;;;;5009634;28;20045;-69
2022/08/12 15:13:12;;;;;;;3.63;1.73;;;31.10;60.60;;;;;;5013099;28;20515;-69
2022/08/12 15:16:16;;;;;;;4.00;1.25;;;30.90;59.90;;;;;;5013416;28;20045;-69
2022/08/12 15:19:21;;;;;;;6.55;1.60;;;31.20;61.00;;;;;;5013131;28;20495;-68
2022/08/12 15:22:26;;;;;;;5.15;1.60;;;31.10;60.40;;;;;;5001137;28;20041;-69
2022/08/12 15:25:30;;;;;;;4.50;1.60;;;31.10;60.70;;;;;;5000721;28;20045;-68
2022/08/12 15:28:34;;;;;;;3.63;1.45;;;31.40;60.00;;;;;;5013371;28;20045;-69
2022/08/12 15:31:43;;;;;;;5.97;1.80;;;31.40;59.80;;;;;;5013075;28;20049;-69
2022/08/12 15:34:47;;;;;;;4.78;1.67;;;31.40;60.10;;;;;;5012521;28;20041;-68
2022/08/12 15:38:09;;;;;;;8.25;1.90;;;30.90;61.10;;;;;;5000740;28;20401;-68
2022/08/12 15:41:14;;;;;;;5.43;1.73;;;30.80;61.20;;;;;;5012810;28;20041;-68
2022/08/12 15:44:19;;;;;;;2.38;1.40;;;30.80;61.00;;;;;;5012485;28;20049;-68
2022/08/12 15:50:47;;;;;;;1.48;1.38;;;31.20;60.10;;;;;;5012756;28;20069;-68
2022/08/12 15:54:04;;;;;;;3.75;1.73;;;31.40;60.60;;;;;;5000720;28;20487;-68
2022/08/12 15:57:08;;;;;;;3.53;1.50;;;31.30;60.60;;;;;;5012365;28;20045;-68
2022/08/12 16:00:12;;;;;;;4.35;2.00;;;31.20;60.70;;;;;;5012187;28;20065;-68
2022/08/12 16:03:17;;;;;;;4.47;1.60;;;31.00;61.80;;;;;;5012759;28;20049;-68
2022/08/12 16:06:21;;;;;;;5.43;1.70;;;30.90;62.90;;;;;;5013727;28;20045;-68
2022/08/12 16:09:25;;;;;;;1.40;1.30;;;30.70;62.60;;;;;;5012566;28;20582;-68
2022/08/12 16:12:31;;;;;;;2.15;1.50;;;30.50;62.80;;;;;;5012963;28;20628;-68
2022/08/12 16:15:39;;;;;;;4.53;1.80;;;30.30;63.00;;;;;;4999858;28;20495;-69
2022/08/12 16:18:43;;;;;;;4.45;1.50;;;30.00;63.70;;;;;;5012369;28;20049;-69
2022/08/12 16:21:50;;;;;;;8.52;2.40;;;29.20;64.60;;;;;;5011087;28;20392;-72
2022/08/12 16:24:55;;;;;;;8.02;2.67;;;27.80;68.20;;;;;;4999776;28;20037;-70
2022/08/12 16:28:01;;;;;;;10.05;2.00;;;27.20;69.70;;;;;;5012537;28;20049;-69
2022/08/12 16:31:06;;;;;;;3.97;2.30;;;26.60;71.30;;;;;;4988565;28;20037;-68
2022/08/12 16:34:14;;;;;;;4.57;2.20;;;26.50;71.50;;;;;;5011800;28;20416;-68
2022/08/12 16:37:20;;;;;;;4.80;2.53;;;26.30;72.60;;;;;;5011994;28;20511;-68
2022/08/12 16:43:47;;;;;;;4.78;2.22;;;26.40;73.30;;;;;;5011725;28;20574;-70
2022/08/12 16:46:52;;;;;;;5.03;2.25;;;26.60;73.90;;;;;;4999948;28;20053;-69
2022/08/12 16:53:41;;;;;;;6.03;2.40;;;26.70;73.90;;;;;;5012129;28;20060;-69
2022/08/12 16:56:49;;;;;;;5.20;2.58;;;26.90;73.20;;;;;;5000181;28;20038;-69
2022/08/12 17:00:14;;;;;;;5.50;2.47;;;27.10;72.60;;;;;;5011424;28;20040;-69
2022/08/12 17:03:38;;;;;;;9.80;2.25;;;27.10;72.80;;;;;;4999275;28;20054;-69
2022/08/12 17:06:46;;;;;;;2.53;2.33;;;27.20;72.70;;;;;;5011385;28;20519;-69
2022/08/12 17:09:50;;;;;;;5.93;2.47;;;27.10;71.80;;;;;;5011294;28;20105;-68
2022/08/12 17:12:54;;;;;;;3.35;2.38;;;26.90;71.90;;;;;;5011673;28;20041;-69
2022/08/12 17:16:01;;;;;;;5.50;3.13;;;26.90;72.00;;;;;;5011319;28;20507;-69
2022/08/12 17:19:07;;;;;;;2.90;2.30;;;26.90;72.50;;;;;;4999534;28;20241;-69
2022/08/12 17:22:31;;;;;;;3.38;1.98;;;26.80;73.70;;;;;;5011054;28;20048;-69
2022/08/12 17:25:54;;;;;;;5.60;2.25;;;26.70;73.70;;;;;;5010938;28;20049;-69
2022/08/12 17:28:59;;;;;;;6.43;2.97;;;26.60;74.10;;;;;;5010906;28;20405;-69
2022/08/12 17:32:04;;;;;;;5.60;2.33;;;26.50;74.40;;;;;;5010968;28;20496;-70
2022/08/12 17:38:33;;;;;;;7.65;3.55;;;25.20;79.90;;;;;;5011440;28;20061;-69
2022/08/12 17:41:37;;;;;;;5.25;2.70;;;24.90;81.60;;;;;;5010730;28;20053;-69
2022/08/12 17:44:42;;;;;;;5.90;2.47;;;24.70;82.70;;;;;;5010459;28;20041;-69
2022/08/12 17:47:48;;;;;;;3.60;2.22;;;24.60;83.70;;;;;;5010262;28;20049;-69
2022/08/12 17:50:52;;;;;;;6.20;2.70;;;24.60;84.60;;;;;;5010194;28;20113;-69
2022/08/12 17:53:56;;;;;;;5.82;2.70;;;24.50;85.00;;;;;;5010416;28;20526;-69
2022/08/12 17:57:21;;;;;;;4.97;2.70;;;24.50;86.10;;;;;;5010860;28;20093;-69
2022/08/12 18:00:27;;;;;;;6.45;2.95;;;24.40;87.30;;;;;;5010339;28;20049;-69
2022/08/12 18:03:32;;;;;;;8.50;3.05;;;24.30;88.60;;;;;;5010495;28;20053;-66
2022/08/12 18:06:36;;;;;;;6.38;2.92;;;24.10;89.70;;;;;;4998157;28;20040;-67
2022/08/12 18:09:41;;;;;;;4.18;2.72;;;23.80;90.50;;;;;;5010601;28;20493;-69
2022/08/12 18:12:46;;;;;;;3.28;2.58;;;23.70;90.50;;;;;;5010467;28;20037;-69
2022/08/12 18:15:50;;;;;;;5.32;2.70;;;23.70;90.30;;;;;;5010414;28;20029;-69
2022/08/12 18:22:36;;;;;;;4.18;2.85;;;23.50;91.20;;;;;;5010099;28;20045;-68
2022/08/12 18:29:02;;;;;;;2.88;2.25;;;23.50;90.70;;;;;;5010366;28;20052;-69
2022/08/12 18:32:07;;;;;;;6.13;3.20;;;23.50;90.60;;;;;;5010135;28;20412;-66
2022/08/12 18:35:11;;;;;;;4.95;2.40;;;23.40;90.60;;;;;;5010025;28;20409;-69
2022/08/12 18:38:17;;;;;;;7.45;2.85;;;23.30;90.40;;;;;;5010592;28;20388;-69
2022/08/12 18:41:31;;;;;;;5.15;2.50;;;23.40;90.40;;;;;;5010636;28;20041;-69
2022/08/12 18:44:36;;;;;;;6.28;2.80;;;23.40;90.80;;;;;;5010261;28;20049;-71
2022/08/12 18:47:45;;;;;;;4.60;2.80;;;22.90;91.40;;;;;;5002130;28;20049;-69
2022/08/12 18:51:08;;;;;;;4.65;2.38;;;23.00;91.20;;;;;;5013779;28;20397;-69
2022/08/12 18:54:12;;;;;;;6.97;2.70;;;23.10;91.70;;;;;;5013815;28;20045;-69
2022/08/12 18:57:37;;;;;;;4.40;2.83;;;23.10;92.00;;;;;;5014088;28;20045;-70
2022/08/12 19:00:42;;;;;;;9.43;3.22;;;22.80;93.80;;;;;;5013573;28;20512;-69
2022/08/12 19:07:44;;;;;;;10.27;3.30;;;22.30;97.80;;;;;;5013441;28;20044;-69
2022/08/12 19:10:50;;;;;;;7.28;3.13;;;22.50;98.60;;;;;;5012977;28;20400;-69
2022/08/12 19:17:18;;;;;;;5.35;2.80;;;22.60;99.90;;;;;;5013265;28;20049;-68
2022/08/12 19:20:23;;;;;;;5.30;3.50;;;22.80;99.90;;;;;;5013407;28;20392;-69
2022/08/12 19:23:27;;;;;;;10.00;3.95;;;22.90;99.90;;;;;;5012659;28;20048;-69
2022/08/12 19:26:33;;;;;;;8.77;3.30;;;22.70;99.90;;;;;;5013373;28;20052;-69